Weather History for Falfurrias, TX

Change the Weather History Date:

Sunday, February 10, 2013

  Actual Average (KNQI) Record (KNQI)
Temperature  
Mean Temperature 76 °F -  
Max Temperature 86 °F 69 °F 77 °F (2014)
Min Temperature 66 °F 50 °F 43 °F (2014)
Cooling Degree Days 11    
Growing Degree Days 26 (Base 50)    
Moisture  
Dew Point 64 °F    
Average Humidity 67    
Maximum Humidity 83    
Minimum Humidity 45    
Precipitation  
Precipitation 0.00 in - - ()
Sea Level Pressure  
Sea Level Pressure 29.81 in    
Wind  
Wind Speed 14 mph (East)    
Max Wind Speed 21 mph    
Max Gust Speed 29 mph    
Visibility 9 miles    
Events      
Averages and records for this station are not official NWS values.
T = Trace of Precipitation, MM = Missing Value Source: NWS Daily Summary

Daily Weather History Graph

Daily Weather History Graph

Search for Another Location

Airport:

Trip Planner

Search our weather history database for the weather conditions in past years. The results will help you decide how hot, cold, wet, or windy it might be!

Date:

Astronomy

Feb. 10, 2013 Rise Set
Actual Time 7:12 AM CST 6:21 PM CST
Civil Twilight 6:48 AM CST 6:45 PM CST
Nautical Twilight 6:21 AM CST 7:12 PM CST
Astronomical Twilight 5:53 AM CST 7:39 PM CST
Moon 7:10 AM CST (2/10) 7:03 PM CST (2/10)
Length of Visible Light 11h 56m
Length of Day
11h 08m
Waxing Crescent, 0% of the Moon is Illuminated
Feb 10
Waxing Crescent
Feb 17
First Quarter
Feb 25
Full
Mar 4
Last Quarter
Mar 11
New

Hourly Weather History & Observations

Time (CST) Temp. Heat Index Dew Point Humidity Pressure Visibility Wind Dir Wind Speed Gust Speed Precip Events Conditions
12:15 AM 76.1 °F - 69.1 °F 79% 29.79 in 10.0 mi SSE 18.4 mph 25.3 mph N/A   Overcast
12:35 AM 76.1 °F - 69.1 °F 79% 29.79 in 7.0 mi SSE 18.4 mph 24.2 mph N/A   Overcast
12:55 AM 76.1 °F - 69.1 °F 79% 29.78 in 10.0 mi SSE 19.6 mph 28.8 mph N/A   Overcast
1:15 AM 76.1 °F - 69.1 °F 79% 29.78 in 10.0 mi SSE 18.4 mph 25.3 mph N/A   Overcast
1:35 AM 76.1 °F - 69.3 °F 79% 29.78 in 10.0 mi South 13.8 mph 24.2 mph N/A   Overcast
1:55 AM 76.1 °F - 69.4 °F 80% 29.78 in 10.0 mi South 15.0 mph 20.7 mph N/A   Overcast
2:15 AM 76.1 °F - 69.4 °F 80% 29.78 in 10.0 mi SSE 18.4 mph 24.2 mph N/A   Overcast
2:35 AM 75.9 °F - 69.6 °F 81% 29.76 in 10.0 mi SSE 17.3 mph 23.0 mph N/A   Overcast
2:55 AM 75.4 °F - 69.4 °F 82% 29.75 in 7.0 mi SSE 15.0 mph 19.6 mph N/A   Scattered Clouds
3:15 AM 75.2 °F - 69.4 °F 82% 29.75 in 10.0 mi SSE 13.8 mph 18.4 mph N/A   Scattered Clouds
3:35 AM 75.2 °F - 69.3 °F 82% 29.75 in 10.0 mi SSE 11.5 mph 19.6 mph N/A   Scattered Clouds
3:55 AM 75.4 °F - 69.3 °F 81% 29.74 in 10.0 mi SSE 16.1 mph 20.7 mph N/A   Overcast
4:15 AM 75.7 °F - 69.3 °F 80% 29.75 in 10.0 mi South 16.1 mph 20.7 mph N/A   Overcast
4:35 AM 75.9 °F - 69.3 °F 80% 29.75 in 10.0 mi South 11.5 mph - N/A   Overcast
4:55 AM 75.7 °F - 69.1 °F 80% 29.75 in 7.0 mi South 10.4 mph - N/A   Overcast
5:15 AM 75.6 °F - 69.1 °F 80% 29.75 in 7.0 mi South 12.7 mph - N/A   Mostly Cloudy
5:35 AM 75.2 °F - 68.9 °F 81% 29.75 in 7.0 mi South 11.5 mph 18.4 mph N/A   Scattered Clouds
5:55 AM 74.7 °F - 68.9 °F 82% 29.75 in 7.0 mi South 12.7 mph - N/A   Clear
6:15 AM 74.5 °F - 68.9 °F 83% 29.75 in 7.0 mi South 12.7 mph - N/A   Clear
6:35 AM 74.3 °F - 68.5 °F 82% 29.76 in 7.0 mi South 10.4 mph - N/A   Clear
6:55 AM 74.5 °F - 68.5 °F 82% 29.77 in 7.0 mi South 12.7 mph 17.3 mph N/A   Clear
7:15 AM 73.9 °F - 68.2 °F 82% 29.77 in 7.0 mi South 11.5 mph - N/A   Clear
7:35 AM 74.1 °F - 68.0 °F 81% 29.78 in 7.0 mi South 9.2 mph - N/A   Clear
7:55 AM 74.3 °F - 68.0 °F 81% 29.78 in 7.0 mi South 10.4 mph - N/A   Clear
8:15 AM 74.7 °F - 67.5 °F 78% 29.79 in 7.0 mi South 11.5 mph - N/A   Clear
8:35 AM 75.6 °F - 67.5 °F 76% 29.80 in 7.0 mi South 12.7 mph - N/A   Clear
8:55 AM 76.3 °F - 67.1 °F 73% 29.80 in 7.0 mi SSW 13.8 mph 19.6 mph N/A   Clear
9:15 AM 77.2 °F - 67.1 °F 71% 29.81 in 7.0 mi SSW 13.8 mph 18.4 mph N/A   Clear
9:35 AM 78.8 °F - 66.9 °F 67% 29.83 in 10.0 mi SSW 12.7 mph 16.1 mph N/A   Clear
9:55 AM 80.1 °F 82.3 °F 66.7 °F 64% 29.83 in 10.0 mi SSW 13.8 mph - N/A   Clear
10:15 AM 80.6 °F 82.9 °F 66.7 °F 63% 29.84 in 10.0 mi SSW 12.7 mph 16.1 mph N/A   Clear
10:35 AM 80.6 °F 82.9 °F 66.7 °F 63% 29.85 in 10.0 mi SW 6.9 mph - N/A   Clear
10:55 AM 81.0 °F 83.2 °F 66.6 °F 61% 29.85 in 10.0 mi SW 8.1 mph - N/A   Clear
11:15 AM 82.4 °F 84.8 °F 66.6 °F 59% 29.85 in 10.0 mi West 8.1 mph - N/A   Clear
11:35 AM 82.4 °F 84.6 °F 66.2 °F 58% 29.85 in 10.0 mi WNW 5.8 mph - N/A   Clear
11:55 AM 83.7 °F 86.0 °F 66.2 °F 56% 29.84 in 10.0 mi NW 5.8 mph - N/A   Clear
12:15 PM 84.2 °F 86.8 °F 66.7 °F 56% 29.84 in 10.0 mi NW 9.2 mph - N/A   Clear
12:35 PM 83.7 °F 86.5 °F 67.5 °F 58% 29.83 in 10.0 mi NNW 9.2 mph - N/A   Clear
12:55 PM 83.5 °F 86.2 °F 67.3 °F 58% 29.82 in 10.0 mi North 8.1 mph - N/A   Clear
1:15 PM 84.4 °F 87.1 °F 66.9 °F 56% 29.81 in 10.0 mi NW 10.4 mph - N/A   Clear
1:35 PM 84.9 °F 87.6 °F 66.9 °F 55% 29.80 in 10.0 mi North 10.4 mph - N/A   Clear
1:55 PM 85.5 °F 88.2 °F 66.9 °F 54% 29.79 in 10.0 mi NNW 9.2 mph - N/A   Clear
2:15 PM 85.3 °F 87.9 °F 66.7 °F 54% 29.78 in 10.0 mi NNW 6.9 mph - N/A   Clear
2:35 PM 85.3 °F 87.1 °F 65.5 °F 51% 29.78 in 10.0 mi NNE 5.8 mph - N/A   Clear
2:55 PM 85.6 °F 87.9 °F 66.4 °F 52% 29.77 in 10.0 mi North 9.2 mph - N/A   Clear
3:15 PM 86.0 °F 88.2 °F 66.2 °F 51% 29.77 in 10.0 mi NNE 9.2 mph - N/A   Clear
3:35 PM 83.5 °F 84.1 °F 62.1 °F 48% 29.76 in 10.0 mi NNE 16.1 mph 24.2 mph N/A   Clear
3:55 PM 82.4 °F 82.9 °F 61.0 °F 48% 29.77 in 10.0 mi North 16.1 mph - N/A   Clear
4:15 PM 81.5 °F 81.7 °F 58.6 °F 46% 29.77 in 10.0 mi NNE 16.1 mph - N/A   Clear
4:35 PM 80.8 °F 81.0 °F 57.6 °F 45% 29.78 in 7.0 mi NNE 17.3 mph 24.2 mph N/A   Clear
4:55 PM 80.6 °F 80.9 °F 57.9 °F 46% 29.78 in 10.0 mi NNE 17.3 mph 23.0 mph N/A   Clear
5:15 PM 79.3 °F - 57.4 °F 47% 29.79 in 10.0 mi NNE 17.3 mph - N/A   Clear
5:35 PM 77.9 °F - 58.5 °F 51% 29.79 in 10.0 mi NE 18.4 mph 23.0 mph N/A   Clear
5:55 PM 76.8 °F - 58.3 °F 53% 29.79 in 10.0 mi NE 16.1 mph 20.7 mph N/A   Scattered Clouds
6:15 PM 76.1 °F - 61.2 °F 60% 29.80 in 10.0 mi NE 15.0 mph 24.2 mph N/A   Mostly Cloudy
6:35 PM 75.2 °F - 59.4 °F 58% 29.81 in 10.0 mi NE 13.8 mph - N/A   Overcast
6:55 PM 74.5 °F - 58.5 °F 57% 29.81 in 10.0 mi NE 20.7 mph 24.2 mph N/A   Overcast
7:15 PM 73.4 °F - 59.0 °F 61% 29.83 in 10.0 mi NE 15.0 mph 20.7 mph N/A   Overcast
7:35 PM 72.9 °F - 59.0 °F 62% 29.84 in 10.0 mi NE 19.6 mph 25.3 mph N/A   Overcast
7:55 PM 72.0 °F - 57.6 °F 60% 29.85 in 10.0 mi NE 13.8 mph 23.0 mph N/A   Overcast
8:15 PM 71.6 °F - 55.6 °F 57% 29.86 in 10.0 mi NE 13.8 mph 20.7 mph N/A   Overcast
8:35 PM 71.4 °F - 54.0 °F 54% 29.87 in 10.0 mi NE 11.5 mph 21.9 mph N/A   Overcast
8:55 PM 70.5 °F - 54.0 °F 56% 29.87 in 10.0 mi NE 13.8 mph 19.6 mph N/A   Overcast
9:15 PM 69.8 °F - 54.5 °F 58% 29.88 in 10.0 mi NE 13.8 mph - N/A   Overcast
9:35 PM 69.6 °F - 54.9 °F 59% 29.88 in 10.0 mi NE 12.7 mph 20.7 mph N/A   Overcast
9:55 PM 68.5 °F - 56.8 °F 66% 29.89 in 10.0 mi NNE 13.8 mph 19.6 mph N/A   Overcast
10:15 PM 68.2 °F - 56.7 °F 67% 29.91 in 10.0 mi NNE 15.0 mph 19.6 mph N/A   Overcast
10:35 PM 67.5 °F - 58.5 °F 73% 29.91 in 10.0 mi ENE 13.8 mph - N/A   Overcast
10:55 PM 67.3 °F - 58.1 °F 72% 29.91 in 10.0 mi NE 11.5 mph 19.6 mph N/A   Overcast
11:15 PM 67.3 °F - 58.5 °F 73% 29.92 in 10.0 mi NE 6.9 mph - N/A   Overcast
11:35 PM 66.7 °F - 59.0 °F 76% 29.93 in 10.0 mi NNE 9.2 mph - N/A   Overcast
11:55 PM 67.3 °F - 57.7 °F 71% 29.93 in 10.0 mi North 5.8 mph - N/A   Overcast